GosportINWX Station Historical Data
 
Daily Summary for December 10, 2019 Units:  English    Metric   Both
Daily Weekly Monthly Yearly Custom
  Current: High: Low: Average:
Temperature: 24.4 °F 34.7 °F 24.4 °F 29 °F
Dew Point: 14.9 °F 27.6 °F 14.4 °F 21.4 °F
Humidity: 66.6% 79% 64.2% 73%
Wind Speed: 6.2mph 13mph 3.9mph 8.2mph
Wind Gust: 16.1mph 31.4mph - -
WindWNW - - WNW
Pressure: 29.94 in 29.94 in 29.79 in -
Precipitation: 0.00 in      
Historical Graphs
 
 
Tabular Data for December 10, 2019
Time Temperature Dew Point Pressure Wind Wind Speed Wind Gust Humidity Rainfall Rate (Hourly) solar
00:04 34.7 °F 27.6 °F 29.79 in West 9.5 mph 26.6 mph 75% 0.00 in W/m2
00:09 34.2 °F 27.1 °F 29.79 in WNW 8.5 mph 22.2 mph 75% 0.00 in W/m2
00:14 33.9 °F 27 °F 29.79 in NW 9.8 mph 17.9 mph 75.6% 0.00 in W/m2
00:19 33.7 °F 27.1 °F 29.80 in NW 8 mph 17.9 mph 76.3% 0.00 in W/m2
00:24 33.5 °F 27.1 °F 29.79 in WNW 8.7 mph 19.2 mph 77% 0.00 in W/m2
00:29 33.3 °F 27.2 °F 29.80 in WNW 8 mph 20.9 mph 77.9% 0.00 in W/m2
00:34 33.2 °F 27 °F 29.80 in WNW 9.3 mph 20.9 mph 78% 0.00 in W/m2
00:39 32.7 °F 26.6 °F 29.81 in WNW 7.6 mph 22.2 mph 78% 0.00 in W/m2
00:44 32.5 °F 26.4 °F 29.81 in WNW 9.1 mph 22.2 mph 78% 0.00 in W/m2
00:49 32.1 °F 26 °F 29.81 in NW 11.9 mph 26.6 mph 77.8% 0.00 in W/m2
00:54 31.7 °F 25.7 °F 29.81 in NW 8.9 mph 26.6 mph 78% 0.00 in W/m2
00:59 31.5 °F 25.4 °F 29.81 in NW 7.3 mph 26.6 mph 78% 0.00 in W/m2
01:04 31.5 °F 25.4 °F 29.81 in WNW 9.4 mph 25.3 mph 78% 0.00 in W/m2
01:09 31.4 °F 25.3 °F 29.82 in West 7.8 mph 17.9 mph 78.1% 0.00 in W/m2
01:14 31.3 °F 25.5 °F 29.81 in West 7.3 mph 17.9 mph 79% 0.00 in W/m2
01:19 31.2 °F 25.4 °F 29.82 in WNW 6.6 mph 17.9 mph 79% 0.00 in W/m2
01:24 31 °F 25.1 °F 29.83 in WNW 9.6 mph 22.2 mph 78.4% 0.00 in W/m2
01:29 30.7 °F 24.3 °F 29.83 in WNW 11.1 mph 22.2 mph 77.1% 0.00 in W/m2
01:34 30.3 °F 23.6 °F 29.83 in WNW 9.6 mph 22.2 mph 76% 0.00 in W/m2
01:39 30.2 °F 23.5 °F 29.83 in NW 7.2 mph 20.9 mph 76% 0.00 in W/m2
01:44 30.2 °F 23.5 °F 29.83 in NW 6.1 mph 16.1 mph 76% 0.00 in W/m2
01:49 30.1 °F 23.6 °F 29.84 in WNW 7.1 mph 19.2 mph 76.3% 0.00 in W/m2
01:54 30 °F 23.7 °F 29.84 in WNW 6.8 mph 19.2 mph 77% 0.00 in W/m2
01:59 30 °F 23.7 °F 29.84 in NW 6.6 mph 19.2 mph 77% 0.00 in W/m2
02:04 29.9 °F 23.6 °F 29.84 in NW 5.3 mph 13.5 mph 77% 0.00 in W/m2
02:09 30 °F 23.7 °F 29.84 in NW 5.2 mph 13.5 mph 77% 0.00 in W/m2
02:14 29.8 °F 23.5 °F 29.85 in NW 4.2 mph 11.8 mph 77% 0.00 in W/m2
02:19 29.8 °F 23.5 °F 29.86 in NW 3.9 mph 13.5 mph 77% 0.00 in W/m2
02:24 29.8 °F 23.5 °F 29.87 in NW 7.7 mph 14.8 mph 77% 0.00 in W/m2
02:29 29.4 °F 22.8 °F 29.87 in NW 5.9 mph 14.8 mph 76.2% 0.00 in W/m2
02:34 29.3 °F 22.7 °F 29.87 in WNW 4.7 mph 19.2 mph 76% 0.00 in W/m2
02:39 29.2 °F 22.6 °F 29.87 in WNW 10 mph 25.3 mph 76% 0.00 in W/m2
02:44 28.8 °F 22 °F 29.87 in West 9.2 mph 25.3 mph 75.3% 0.00 in W/m2
02:49 28.7 °F 21.7 °F 29.88 in WNW 9 mph 25.3 mph 75% 0.00 in W/m2
02:54 28.6 °F 21.7 °F 29.88 in WNW 6.1 mph 17.9 mph 75% 0.00 in W/m2
02:59 28.4 °F 21.4 °F 29.88 in NW 5.4 mph 16.1 mph 74.5% 0.00 in W/m2
03:04 28.4 °F 21.5 °F 29.88 in NW 7.8 mph 16.1 mph 75% 0.00 in W/m2
03:09 28.3 °F 20.7 °F 29.88 in NW 8.3 mph 16.1 mph 72.7% 0.00 in W/m2
03:14 28 °F 19.5 °F 29.89 in NW 7.9 mph 22.2 mph 70% 0.00 in W/m2
03:19 28 °F 19.5 °F 29.89 in WNW 6.3 mph 22.2 mph 70% 0.00 in W/m2
03:24 28 °F 19.8 °F 29.90 in NW 7.9 mph 22.2 mph 71% 0.00 in W/m2
03:29 28 °F 19.8 °F 29.89 in WNW 7.9 mph 19.2 mph 71% 0.00 in W/m2
03:34 28 °F 20 °F 29.90 in WNW 7 mph 19.2 mph 71.6% 0.00 in W/m2
03:39 28 °F 20.2 °F 29.90 in NW 6.9 mph 19.2 mph 72% 0.00 in W/m2
03:44 28 °F 20.2 °F 29.91 in WNW 7.2 mph 16.1 mph 72% 0.00 in W/m2
03:49 27.8 °F 19.8 °F 29.91 in NW 9.2 mph 19.2 mph 71.6% 0.00 in W/m2
03:54 27.5 °F 19.2 °F 29.90 in NW 8.2 mph 23.6 mph 70.5% 0.00 in W/m2
03:59 27.4 °F 18.9 °F 29.90 in NW 6.9 mph 23.6 mph 70% 0.00 in W/m2
04:04 27.2 °F 18.5 °F 29.90 in WNW 7.4 mph 23.6 mph 69.3% 0.00 in W/m2
04:09 27.1 °F 18.1 °F 29.91 in WNW 9.9 mph 23.6 mph 68.6% 0.00 in W/m2
04:14 26.9 °F 17.7 °F 29.91 in WNW 11.2 mph 29.7 mph 67.8% 0.00 in W/m2
04:19 26.6 °F 17.1 °F 29.91 in WNW 11.3 mph 29.7 mph 67.1% 0.00 in W/m2
04:24 26.2 °F 16.6 °F 29.91 in NW 12.7 mph 29.7 mph 66.6% 0.00 in W/m2
04:29 25.9 °F 16.1 °F 29.92 in WNW 9.7 mph 25.3 mph 66% 0.00 in W/m2
04:34 25.8 °F 16.3 °F 29.92 in WNW 7.3 mph 25.3 mph 66.6% 0.00 in W/m2
04:39 25.7 °F 16.3 °F 29.93 in WNW 6.8 mph 20.9 mph 67% 0.00 in W/m2
04:44 25.7 °F 16.4 °F 29.92 in WNW 7 mph 17.9 mph 67.2% 0.00 in W/m2
04:49 25.7 °F 16.6 °F 29.92 in WNW 10.6 mph 28.4 mph 68% 0.00 in W/m2
04:54 25.6 °F 16.2 °F 29.93 in WNW 10.9 mph 28.4 mph 67.1% 0.00 in W/m2
04:59 25.5 °F 15.9 °F 29.94 in West 13 mph 31 mph 66.4% 0.00 in W/m2
05:04 25.3 °F 15.2 °F 29.94 in WNW 9.4 mph 31.4 mph 65% 0.00 in W/m2
05:09 24.9 °F 14.5 °F 29.94 in NW 9.9 mph 28.9 mph 64.2% 0.00 in W/m2
05:14 24.7 °F 14.4 °F 29.94 in NW 11.3 mph 20.9 mph 64.7% 0.00 in W/m2
05:19 24.5 °F 14.7 °F 29.94 in NW 7.9 mph 20.9 mph 65.7% 0.00 in W/m2
05:24 24.4 °F 14.7 °F 29.94 in WNW 7.7 mph 20.9 mph 66% 0.00 in W/m2
05:29 24.4 °F 14.9 °F 29.94 in WNW 6.2 mph 16.1 mph 66.6% 0.00 in W/m2
Gosport, Indiana, USA
Compliments of Weather Underground - 4 mb